sensor_id;sensor_type;location;lat;lon;timestamp;temperature;humidity
16907;DHT22;8570;52.380;4.654;2023-09-12T00:00:10;20.20;99.90
16907;DHT22;8570;52.380;4.654;2023-09-12T00:05:14;20.20;99.90
16907;DHT22;8570;52.380;4.654;2023-09-12T00:10:16;20.20;99.90
16907;DHT22;8570;52.380;4.654;2023-09-12T00:15:18;20.20;99.90
16907;DHT22;8570;52.380;4.654;2023-09-12T00:20:22;20.20;99.90
16907;DHT22;8570;52.380;4.654;2023-09-12T00:25:24;20.10;99.90
16907;DHT22;8570;52.380;4.654;2023-09-12T00:30:26;20.10;99.90
16907;DHT22;8570;52.380;4.654;2023-09-12T00:35:29;20.10;99.90
16907;DHT22;8570;52.380;4.654;2023-09-12T00:40:31;20.10;99.90
16907;DHT22;8570;52.380;4.654;2023-09-12T00:45:33;20.00;99.90
16907;DHT22;8570;52.380;4.654;2023-09-12T00:50:36;20.00;99.90
16907;DHT22;8570;52.380;4.654;2023-09-12T00:55:42;20.00;99.90
16907;DHT22;8570;52.380;4.654;2023-09-12T01:00:45;19.90;99.90
16907;DHT22;8570;52.380;4.654;2023-09-12T01:05:51;19.90;99.90
16907;DHT22;8570;52.380;4.654;2023-09-12T01:10:55;19.80;99.90
16907;DHT22;8570;52.380;4.654;2023-09-12T01:15:58;19.80;99.90
16907;DHT22;8570;52.380;4.654;2023-09-12T01:21:32;19.80;99.90
16907;DHT22;8570;52.380;4.654;2023-09-12T01:26:49;19.80;99.90
16907;DHT22;8570;52.380;4.654;2023-09-12T01:31:56;19.70;99.90
16907;DHT22;8570;52.380;4.654;2023-09-12T01:36:58;19.70;99.90
16907;DHT22;8570;52.380;4.654;2023-09-12T01:42:01;19.60;99.90
16907;DHT22;8570;52.380;4.654;2023-09-12T01:47:06;19.60;99.90
16907;DHT22;8570;52.380;4.654;2023-09-12T01:52:08;19.60;99.90
16907;DHT22;8570;52.380;4.654;2023-09-12T01:57:10;19.50;99.90
16907;DHT22;8570;52.380;4.654;2023-09-12T02:02:14;19.50;99.90
16907;DHT22;8570;52.380;4.654;2023-09-12T02:07:16;19.50;99.90
16907;DHT22;8570;52.380;4.654;2023-09-12T02:12:18;19.50;99.90
16907;DHT22;8570;52.380;4.654;2023-09-12T02:17:21;19.40;99.90
16907;DHT22;8570;52.380;4.654;2023-09-12T02:22:23;19.40;99.90
16907;DHT22;8570;52.380;4.654;2023-09-12T02:27:25;19.30;99.90
16907;DHT22;8570;52.380;4.654;2023-09-12T02:32:29;19.20;99.90
16907;DHT22;8570;52.380;4.654;2023-09-12T02:37:31;19.20;99.90
16907;DHT22;8570;52.380;4.654;2023-09-12T02:42:33;19.10;99.90
16907;DHT22;8570;52.380;4.654;2023-09-12T02:47:37;19.10;99.90
16907;DHT22;8570;52.380;4.654;2023-09-12T02:52:38;19.00;99.90
16907;DHT22;8570;52.380;4.654;2023-09-12T02:57:40;19.00;99.90
16907;DHT22;8570;52.380;4.654;2023-09-12T03:02:44;19.00;99.90
16907;DHT22;8570;52.380;4.654;2023-09-12T03:07:45;19.00;99.90
16907;DHT22;8570;52.380;4.654;2023-09-12T03:12:47;19.00;99.90
16907;DHT22;8570;52.380;4.654;2023-09-12T03:17:50;19.00;99.90
16907;DHT22;8570;52.380;4.654;2023-09-12T03:22:52;18.90;99.90
16907;DHT22;8570;52.380;4.654;2023-09-12T03:27:54;18.90;99.90
16907;DHT22;8570;52.380;4.654;2023-09-12T03:32:57;18.90;99.90
16907;DHT22;8570;52.380;4.654;2023-09-12T03:37:59;18.90;99.90
16907;DHT22;8570;52.380;4.654;2023-09-12T03:43:02;18.80;99.90
16907;DHT22;8570;52.380;4.654;2023-09-12T03:48:05;18.80;99.90
16907;DHT22;8570;52.380;4.654;2023-09-12T03:53:10;18.80;99.90
16907;DHT22;8570;52.380;4.654;2023-09-12T03:58:12;18.80;99.90
16907;DHT22;8570;52.380;4.654;2023-09-12T04:03:16;18.80;99.90
16907;DHT22;8570;52.380;4.654;2023-09-12T04:08:17;18.80;99.90
16907;DHT22;8570;52.380;4.654;2023-09-12T04:13:19;18.80;99.90
16907;DHT22;8570;52.380;4.654;2023-09-12T04:18:23;18.80;99.90
16907;DHT22;8570;52.380;4.654;2023-09-12T04:23:25;18.80;99.90
16907;DHT22;8570;52.380;4.654;2023-09-12T04:28:27;18.80;99.90
16907;DHT22;8570;52.380;4.654;2023-09-12T04:33:30;18.90;99.90
16907;DHT22;8570;52.380;4.654;2023-09-12T04:38:32;18.90;99.90
16907;DHT22;8570;52.380;4.654;2023-09-12T04:43:34;18.90;99.90
16907;DHT22;8570;52.380;4.654;2023-09-12T04:48:38;18.90;99.90
16907;DHT22;8570;52.380;4.654;2023-09-12T04:53:39;19.00;99.90
16907;DHT22;8570;52.380;4.654;2023-09-12T04:58:41;19.00;99.90
16907;DHT22;8570;52.380;4.654;2023-09-12T05:03:45;19.00;99.90
16907;DHT22;8570;52.380;4.654;2023-09-12T05:08:46;19.00;99.90
16907;DHT22;8570;52.380;4.654;2023-09-12T05:13:49;19.10;99.90
16907;DHT22;8570;52.380;4.654;2023-09-12T05:18:52;19.10;99.90
16907;DHT22;8570;52.380;4.654;2023-09-12T05:23:55;19.10;99.90
16907;DHT22;8570;52.380;4.654;2023-09-12T05:28:57;19.10;99.90
16907;DHT22;8570;52.380;4.654;2023-09-12T05:34:00;19.10;99.90
16907;DHT22;8570;52.380;4.654;2023-09-12T05:39:02;19.10;99.90
16907;DHT22;8570;52.380;4.654;2023-09-12T05:44:05;19.10;99.90
16907;DHT22;8570;52.380;4.654;2023-09-12T05:49:09;19.10;99.90
16907;DHT22;8570;52.380;4.654;2023-09-12T05:54:11;19.10;99.90
16907;DHT22;8570;52.380;4.654;2023-09-12T05:59:14;19.10;99.90
16907;DHT22;8570;52.380;4.654;2023-09-12T06:04:17;19.00;99.90
16907;DHT22;8570;52.380;4.654;2023-09-12T06:09:19;19.00;99.90
16907;DHT22;8570;52.380;4.654;2023-09-12T06:14:21;19.10;99.90
16907;DHT22;8570;52.380;4.654;2023-09-12T06:19:24;19.20;99.90
16907;DHT22;8570;52.380;4.654;2023-09-12T06:24:28;19.20;99.90
16907;DHT22;8570;52.380;4.654;2023-09-12T06:29:30;19.20;99.90
16907;DHT22;8570;52.380;4.654;2023-09-12T06:34:33;19.20;99.90
16907;DHT22;8570;52.380;4.654;2023-09-12T06:39:35;19.20;99.90
16907;DHT22;8570;52.380;4.654;2023-09-12T06:44:37;19.20;99.90
16907;DHT22;8570;52.380;4.654;2023-09-12T06:49:40;19.20;99.90
16907;DHT22;8570;52.380;4.654;2023-09-12T06:54:42;19.20;99.90
16907;DHT22;8570;52.380;4.654;2023-09-12T06:59:44;19.20;99.90
16907;DHT22;8570;52.380;4.654;2023-09-12T07:04:50;19.30;99.90
16907;DHT22;8570;52.380;4.654;2023-09-12T07:09:51;19.30;99.90
16907;DHT22;8570;52.380;4.654;2023-09-12T07:14:53;19.40;99.90
16907;DHT22;8570;52.380;4.654;2023-09-12T07:20:20;19.40;99.90
16907;DHT22;8570;52.380;4.654;2023-09-12T07:25:38;19.50;99.90
16907;DHT22;8570;52.380;4.654;2023-09-12T07:30:41;19.50;99.90
16907;DHT22;8570;52.380;4.654;2023-09-12T07:35:44;19.60;99.90
16907;DHT22;8570;52.380;4.654;2023-09-12T07:40:49;19.60;99.90
16907;DHT22;8570;52.380;4.654;2023-09-12T07:45:55;19.70;99.90
16907;DHT22;8570;52.380;4.654;2023-09-12T07:50:58;19.70;99.90
16907;DHT22;8570;52.380;4.654;2023-09-12T07:56:00;19.80;99.90
16907;DHT22;8570;52.380;4.654;2023-09-12T08:01:05;19.80;99.90
16907;DHT22;8570;52.380;4.654;2023-09-12T08:06:08;19.90;99.90
16907;DHT22;8570;52.380;4.654;2023-09-12T08:11:10;19.90;99.90
16907;DHT22;8570;52.380;4.654;2023-09-12T08:16:15;20.00;99.90
16907;DHT22;8570;52.380;4.654;2023-09-12T08:21:18;20.00;99.90
16907;DHT22;8570;52.380;4.654;2023-09-12T08:26:20;20.10;99.90
16907;DHT22;8570;52.380;4.654;2023-09-12T08:31:22;20.20;99.90
16907;DHT22;8570;52.380;4.654;2023-09-12T08:36:25;20.40;99.90
16907;DHT22;8570;52.380;4.654;2023-09-12T08:41:27;20.50;99.90
16907;DHT22;8570;52.380;4.654;2023-09-12T08:46:29;20.70;99.90
16907;DHT22;8570;52.380;4.654;2023-09-12T08:51:32;20.90;99.90
16907;DHT22;8570;52.380;4.654;2023-09-12T08:56:36;21.00;99.90
16907;DHT22;8570;52.380;4.654;2023-09-12T09:01:46;21.10;99.90
16907;DHT22;8570;52.380;4.654;2023-09-12T09:12:16;21.30;99.90
16907;DHT22;8570;52.380;4.654;2023-09-12T09:17:19;21.40;99.90
16907;DHT22;8570;52.380;4.654;2023-09-12T09:22:26;21.40;99.90
16907;DHT22;8570;52.380;4.654;2023-09-12T09:27:49;21.50;99.90
16907;DHT22;8570;52.380;4.654;2023-09-12T09:39:04;21.70;99.90
16907;DHT22;8570;52.380;4.654;2023-09-12T09:44:09;21.80;99.90
16907;DHT22;8570;52.380;4.654;2023-09-12T09:49:14;21.80;99.90
16907;DHT22;8570;52.380;4.654;2023-09-12T09:54:18;21.70;99.90
16907;DHT22;8570;52.380;4.654;2023-09-12T09:59:21;21.70;99.90
16907;DHT22;8570;52.380;4.654;2023-09-12T10:04:24;21.80;99.90
16907;DHT22;8570;52.380;4.654;2023-09-12T10:09:30;21.90;99.90
16907;DHT22;8570;52.380;4.654;2023-09-12T10:14:34;21.90;99.90
16907;DHT22;8570;52.380;4.654;2023-09-12T10:19:39;21.90;99.90
16907;DHT22;8570;52.380;4.654;2023-09-12T10:24:46;22.00;99.90
16907;DHT22;8570;52.380;4.654;2023-09-12T10:29:48;22.00;99.90
16907;DHT22;8570;52.380;4.654;2023-09-12T10:34:54;22.10;99.90
16907;DHT22;8570;52.380;4.654;2023-09-12T10:40:01;22.10;99.90
16907;DHT22;8570;52.380;4.654;2023-09-12T10:45:09;22.30;99.90
16907;DHT22;8570;52.380;4.654;2023-09-12T10:50:12;22.40;99.90
16907;DHT22;8570;52.380;4.654;2023-09-12T10:55:17;22.50;99.90
16907;DHT22;8570;52.380;4.654;2023-09-12T11:00:19;22.60;99.90
16907;DHT22;8570;52.380;4.654;2023-09-12T11:05:38;22.70;99.90
16907;DHT22;8570;52.380;4.654;2023-09-12T11:11:18;22.80;99.90
16907;DHT22;8570;52.380;4.654;2023-09-12T11:16:21;22.90;99.90
16907;DHT22;8570;52.380;4.654;2023-09-12T11:21:31;23.00;99.90
16907;DHT22;8570;52.380;4.654;2023-09-12T11:26:35;23.20;99.90
16907;DHT22;8570;52.380;4.654;2023-09-12T11:31:38;23.40;99.90
16907;DHT22;8570;52.380;4.654;2023-09-12T11:36:43;23.60;99.90
16907;DHT22;8570;52.380;4.654;2023-09-12T11:41:46;23.80;99.90
16907;DHT22;8570;52.380;4.654;2023-09-12T11:46:58;24.20;99.90
16907;DHT22;8570;52.380;4.654;2023-09-12T11:52:08;24.60;99.90
16907;DHT22;8570;52.380;4.654;2023-09-12T11:57:13;24.90;99.90
16907;DHT22;8570;52.380;4.654;2023-09-12T12:02:18;25.10;99.90
16907;DHT22;8570;52.380;4.654;2023-09-12T12:07:20;25.10;99.90
16907;DHT22;8570;52.380;4.654;2023-09-12T12:12:24;25.00;99.90
16907;DHT22;8570;52.380;4.654;2023-09-12T12:17:28;25.00;99.90
16907;DHT22;8570;52.380;4.654;2023-09-12T12:22:30;24.90;99.90
16907;DHT22;8570;52.380;4.654;2023-09-12T12:27:38;24.90;99.90
16907;DHT22;8570;52.380;4.654;2023-09-12T12:32:49;24.80;99.90
16907;DHT22;8570;52.380;4.654;2023-09-12T12:37:54;24.80;99.90
16907;DHT22;8570;52.380;4.654;2023-09-12T12:42:58;24.70;99.90
16907;DHT22;8570;52.380;4.654;2023-09-12T12:48:01;24.60;99.90
16907;DHT22;8570;52.380;4.654;2023-09-12T12:53:03;24.70;99.90
16907;DHT22;8570;52.380;4.654;2023-09-12T12:58:07;24.70;99.90
16907;DHT22;8570;52.380;4.654;2023-09-12T13:03:10;24.80;99.90
16907;DHT22;8570;52.380;4.654;2023-09-12T13:08:12;25.00;99.90
16907;DHT22;8570;52.380;4.654;2023-09-12T13:13:15;25.20;99.90
16907;DHT22;8570;52.380;4.654;2023-09-12T13:18:17;25.30;99.90
16907;DHT22;8570;52.380;4.654;2023-09-12T13:23:22;25.30;99.90
16907;DHT22;8570;52.380;4.654;2023-09-12T13:28:26;25.40;99.90
16907;DHT22;8570;52.380;4.654;2023-09-12T13:33:30;25.60;99.90
16907;DHT22;8570;52.380;4.654;2023-09-12T13:38:33;25.80;99.90
16907;DHT22;8570;52.380;4.654;2023-09-12T13:43:36;25.80;99.90
16907;DHT22;8570;52.380;4.654;2023-09-12T13:48:38;25.80;99.90
16907;DHT22;8570;52.380;4.654;2023-09-12T13:53:40;25.90;99.90
16907;DHT22;8570;52.380;4.654;2023-09-12T13:58:43;26.00;99.90
16907;DHT22;8570;52.380;4.654;2023-09-12T14:03:45;26.10;99.90
16907;DHT22;8570;52.380;4.654;2023-09-12T14:08:47;26.10;99.90
16907;DHT22;8570;52.380;4.654;2023-09-12T14:13:50;26.00;99.90
16907;DHT22;8570;52.380;4.654;2023-09-12T14:18:52;26.00;99.90
16907;DHT22;8570;52.380;4.654;2023-09-12T14:23:54;25.90;99.90
16907;DHT22;8570;52.380;4.654;2023-09-12T14:28:57;25.80;99.90
16907;DHT22;8570;52.380;4.654;2023-09-12T14:33:59;25.70;99.90
16907;DHT22;8570;52.380;4.654;2023-09-12T14:39:01;25.80;99.90
16907;DHT22;8570;52.380;4.654;2023-09-12T14:44:07;25.80;99.90
16907;DHT22;8570;52.380;4.654;2023-09-12T14:49:09;25.80;99.90
16907;DHT22;8570;52.380;4.654;2023-09-12T14:54:12;25.80;99.90
16907;DHT22;8570;52.380;4.654;2023-09-12T14:59:15;25.70;99.90
16907;DHT22;8570;52.380;4.654;2023-09-12T15:04:18;25.60;99.90
16907;DHT22;8570;52.380;4.654;2023-09-12T15:09:22;25.50;99.90
16907;DHT22;8570;52.380;4.654;2023-09-12T15:14:25;25.50;99.90
16907;DHT22;8570;52.380;4.654;2023-09-12T15:19:27;25.50;99.90
16907;DHT22;8570;52.380;4.654;2023-09-12T15:24:29;25.40;99.90
16907;DHT22;8570;52.380;4.654;2023-09-12T15:29:32;25.30;99.90
16907;DHT22;8570;52.380;4.654;2023-09-12T15:34:35;25.20;99.90
16907;DHT22;8570;52.380;4.654;2023-09-12T15:39:42;25.20;99.90
16907;DHT22;8570;52.380;4.654;2023-09-12T15:44:47;25.10;99.90
16907;DHT22;8570;52.380;4.654;2023-09-12T15:49:49;25.10;99.90
16907;DHT22;8570;52.380;4.654;2023-09-12T15:54:51;25.10;99.90
16907;DHT22;8570;52.380;4.654;2023-09-12T15:59:54;24.90;99.90
16907;DHT22;8570;52.380;4.654;2023-09-12T16:04:56;24.80;99.90
16907;DHT22;8570;52.380;4.654;2023-09-12T16:09:58;24.60;99.90
16907;DHT22;8570;52.380;4.654;2023-09-12T16:15:01;24.50;99.90
16907;DHT22;8570;52.380;4.654;2023-09-12T16:20:05;24.40;99.90
16907;DHT22;8570;52.380;4.654;2023-09-12T16:25:09;24.30;99.90
16907;DHT22;8570;52.380;4.654;2023-09-12T16:30:12;24.30;99.90
16907;DHT22;8570;52.380;4.654;2023-09-12T16:35:14;24.20;99.90
16907;DHT22;8570;52.380;4.654;2023-09-12T16:40:16;24.10;99.90
16907;DHT22;8570;52.380;4.654;2023-09-12T16:45:20;24.00;99.90
16907;DHT22;8570;52.380;4.654;2023-09-12T16:50:22;23.90;99.90
16907;DHT22;8570;52.380;4.654;2023-09-12T16:55:25;23.80;99.90
16907;DHT22;8570;52.380;4.654;2023-09-12T17:00:28;23.70;99.90
16907;DHT22;8570;52.380;4.654;2023-09-12T17:05:30;23.60;99.90
16907;DHT22;8570;52.380;4.654;2023-09-12T17:10:32;23.50;99.90
16907;DHT22;8570;52.380;4.654;2023-09-12T17:15:36;23.40;99.90
16907;DHT22;8570;52.380;4.654;2023-09-12T17:20:38;23.30;99.90
16907;DHT22;8570;52.380;4.654;2023-09-12T17:25:40;23.20;99.90
16907;DHT22;8570;52.380;4.654;2023-09-12T17:30:43;23.10;99.90
16907;DHT22;8570;52.380;4.654;2023-09-12T17:35:45;23.10;99.90
16907;DHT22;8570;52.380;4.654;2023-09-12T17:40:47;23.10;99.90
16907;DHT22;8570;52.380;4.654;2023-09-12T17:45:53;23.00;99.90
16907;DHT22;8570;52.380;4.654;2023-09-12T17:50:55;23.00;99.90
16907;DHT22;8570;52.380;4.654;2023-09-12T17:55:57;22.90;99.90
16907;DHT22;8570;52.380;4.654;2023-09-12T18:01:02;22.90;99.90
16907;DHT22;8570;52.380;4.654;2023-09-12T18:06:07;22.90;99.90
16907;DHT22;8570;52.380;4.654;2023-09-12T18:11:09;22.90;99.90
16907;DHT22;8570;52.380;4.654;2023-09-12T18:16:14;22.80;99.90
16907;DHT22;8570;52.380;4.654;2023-09-12T18:21:18;22.70;99.90
16907;DHT22;8570;52.380;4.654;2023-09-12T18:26:21;22.70;99.90
16907;DHT22;8570;52.380;4.654;2023-09-12T18:31:26;22.70;99.90
16907;DHT22;8570;52.380;4.654;2023-09-12T18:36:28;22.70;99.90
16907;DHT22;8570;52.380;4.654;2023-09-12T18:41:30;22.60;99.90
16907;DHT22;8570;52.380;4.654;2023-09-12T18:46:34;22.60;99.90
16907;DHT22;8570;52.380;4.654;2023-09-12T18:51:36;22.60;99.90
16907;DHT22;8570;52.380;4.654;2023-09-12T18:56:37;22.50;99.90
16907;DHT22;8570;52.380;4.654;2023-09-12T19:01:42;22.50;99.90
16907;DHT22;8570;52.380;4.654;2023-09-12T19:06:44;22.50;99.90
16907;DHT22;8570;52.380;4.654;2023-09-12T19:11:47;22.40;99.90
16907;DHT22;8570;52.380;4.654;2023-09-12T19:16:53;22.30;99.90
16907;DHT22;8570;52.380;4.654;2023-09-12T19:21:56;22.30;99.90
16907;DHT22;8570;52.380;4.654;2023-09-12T19:26:58;22.20;99.90
16907;DHT22;8570;52.380;4.654;2023-09-12T19:32:05;22.20;99.90
16907;DHT22;8570;52.380;4.654;2023-09-12T19:37:07;22.20;99.90
16907;DHT22;8570;52.380;4.654;2023-09-12T19:42:09;22.10;99.90
16907;DHT22;8570;52.380;4.654;2023-09-12T19:47:13;22.10;99.90
16907;DHT22;8570;52.380;4.654;2023-09-12T19:52:15;22.10;99.90
16907;DHT22;8570;52.380;4.654;2023-09-12T19:57:19;22.00;99.90
16907;DHT22;8570;52.380;4.654;2023-09-12T20:02:26;22.00;99.90
16907;DHT22;8570;52.380;4.654;2023-09-12T20:07:28;21.90;99.90
16907;DHT22;8570;52.380;4.654;2023-09-12T20:12:30;21.90;99.90
16907;DHT22;8570;52.380;4.654;2023-09-12T20:17:33;21.80;99.90
16907;DHT22;8570;52.380;4.654;2023-09-12T20:22:35;21.80;99.90
16907;DHT22;8570;52.380;4.654;2023-09-12T20:27:37;21.80;99.90
16907;DHT22;8570;52.380;4.654;2023-09-12T20:32:42;21.70;99.90
16907;DHT22;8570;52.380;4.654;2023-09-12T20:37:44;21.70;99.90
16907;DHT22;8570;52.380;4.654;2023-09-12T20:42:46;21.60;99.90
16907;DHT22;8570;52.380;4.654;2023-09-12T20:47:50;21.60;99.90
16907;DHT22;8570;52.380;4.654;2023-09-12T20:52:53;21.50;99.90
16907;DHT22;8570;52.380;4.654;2023-09-12T20:57:58;21.50;99.90
16907;DHT22;8570;52.380;4.654;2023-09-12T21:03:01;21.40;99.90
16907;DHT22;8570;52.380;4.654;2023-09-12T21:08:06;21.40;99.90
16907;DHT22;8570;52.380;4.654;2023-09-12T21:13:08;21.30;99.90
16907;DHT22;8570;52.380;4.654;2023-09-12T21:18:11;21.20;99.90
16907;DHT22;8570;52.380;4.654;2023-09-12T21:23:14;21.20;99.90
16907;DHT22;8570;52.380;4.654;2023-09-12T21:28:16;21.10;99.90
16907;DHT22;8570;52.380;4.654;2023-09-12T21:33:20;21.10;99.90
16907;DHT22;8570;52.380;4.654;2023-09-12T21:38:21;21.10;99.90
16907;DHT22;8570;52.380;4.654;2023-09-12T21:43:24;21.00;99.90
16907;DHT22;8570;52.380;4.654;2023-09-12T21:48:27;21.00;99.90
16907;DHT22;8570;52.380;4.654;2023-09-12T21:53:29;21.00;99.90
16907;DHT22;8570;52.380;4.654;2023-09-12T21:58:31;20.90;99.90
16907;DHT22;8570;52.380;4.654;2023-09-12T22:03:34;20.90;99.90
16907;DHT22;8570;52.380;4.654;2023-09-12T22:08:36;20.90;99.90
16907;DHT22;8570;52.380;4.654;2023-09-12T22:13:38;20.90;99.90
16907;DHT22;8570;52.380;4.654;2023-09-12T22:18:42;20.90;99.90
16907;DHT22;8570;52.380;4.654;2023-09-12T22:23:43;20.90;99.90
16907;DHT22;8570;52.380;4.654;2023-09-12T22:28:48;20.80;99.90
16907;DHT22;8570;52.380;4.654;2023-09-12T22:33:51;20.80;99.90
16907;DHT22;8570;52.380;4.654;2023-09-12T22:38:53;20.70;99.90
16907;DHT22;8570;52.380;4.654;2023-09-12T22:43:55;20.60;99.90
16907;DHT22;8570;52.380;4.654;2023-09-12T22:48:59;20.50;99.90
16907;DHT22;8570;52.380;4.654;2023-09-12T22:54:03;20.50;99.90
16907;DHT22;8570;52.380;4.654;2023-09-12T22:59:05;20.50;99.90
16907;DHT22;8570;52.380;4.654;2023-09-12T23:04:09;20.50;99.90
16907;DHT22;8570;52.380;4.654;2023-09-12T23:09:11;20.50;99.90
16907;DHT22;8570;52.380;4.654;2023-09-12T23:14:13;20.50;99.90
16907;DHT22;8570;52.380;4.654;2023-09-12T23:19:16;20.50;99.90
16907;DHT22;8570;52.380;4.654;2023-09-12T23:24:18;20.50;99.90
16907;DHT22;8570;52.380;4.654;2023-09-12T23:29:20;20.40;99.90
16907;DHT22;8570;52.380;4.654;2023-09-12T23:34:24;20.40;99.90
16907;DHT22;8570;52.380;4.654;2023-09-12T23:39:25;20.40;99.90
16907;DHT22;8570;52.380;4.654;2023-09-12T23:44:27;20.30;99.90
16907;DHT22;8570;52.380;4.654;2023-09-12T23:49:32;20.30;99.90
16907;DHT22;8570;52.380;4.654;2023-09-12T23:54:34;20.30;99.90
16907;DHT22;8570;52.380;4.654;2023-09-12T23:59:36;20.30;99.90
